createdAt,value
2018-06-16T00:01:49.866Z,3.23
2018-06-16T00:04:18.030Z,3.20
2018-06-16T00:06:46.539Z,3.40
2018-06-16T00:09:15.076Z,3.23
2018-06-16T00:11:43.571Z,3.20
2018-06-16T00:14:12.082Z,3.30
2018-06-16T00:16:40.615Z,3.30
2018-06-16T00:19:09.117Z,3.37
2018-06-16T00:21:37.639Z,3.47
2018-06-16T00:24:05.821Z,3.50
2018-06-16T00:26:33.987Z,3.80
2018-06-16T00:29:02.573Z,3.53
2018-06-16T00:31:31.071Z,3.53
2018-06-16T00:33:59.257Z,3.77
2018-06-16T00:36:27.771Z,3.70
2018-06-16T00:38:56.293Z,3.97
2018-06-16T00:41:24.823Z,3.27
2018-06-16T00:43:53.347Z,3.50
2018-06-16T00:46:21.844Z,3.80
2018-06-16T00:48:50.357Z,3.87
2018-06-16T00:51:18.888Z,3.47
2018-06-16T00:53:47.413Z,3.53
2018-06-16T00:56:15.968Z,3.83
2018-06-16T00:58:44.518Z,3.63
2018-06-16T01:01:13.025Z,3.10
2018-06-16T01:03:41.512Z,3.53
2018-06-16T01:06:10.068Z,3.57
2018-06-16T01:08:38.583Z,3.40
2018-06-16T01:11:07.140Z,3.50
2018-06-16T01:13:35.648Z,3.60
2018-06-16T01:16:04.172Z,3.80
2018-06-16T01:18:32.682Z,3.80
2018-06-16T01:21:01.186Z,3.87
2018-06-16T01:23:29.674Z,3.93
2018-06-16T01:25:57.840Z,4.30
2018-06-16T01:28:26.338Z,4.20
2018-06-16T01:30:54.830Z,4.23
2018-06-16T01:33:23.002Z,4.00
2018-06-16T01:35:51.521Z,3.90
2018-06-16T01:38:20.047Z,3.37
2018-06-16T01:40:48.555Z,3.53
2018-06-16T01:43:17.090Z,4.00
2018-06-16T01:45:45.625Z,3.90
2018-06-16T01:48:14.113Z,3.70
2018-06-16T01:50:42.691Z,3.90
2018-06-16T01:53:11.203Z,3.63
2018-06-16T01:55:39.731Z,3.90
2018-06-16T01:58:08.269Z,4.23
2018-06-16T02:00:36.435Z,3.97
2018-06-16T02:03:05.011Z,4.23
2018-06-16T02:05:33.520Z,3.77
2018-06-16T02:08:02.026Z,3.83
2018-06-16T02:10:30.559Z,4.27
2018-06-16T02:12:59.049Z,3.47
2018-06-16T02:15:27.556Z,4.00
2018-06-16T02:17:56.056Z,3.90
2018-06-16T02:20:24.528Z,3.93
2018-06-16T02:22:53.076Z,3.77
2018-06-16T02:25:21.566Z,4.03
2018-06-16T02:27:50.078Z,3.77
2018-06-16T02:30:18.632Z,4.33
2018-06-16T02:32:47.144Z,3.90
2018-06-16T02:35:15.648Z,3.77
2018-06-16T02:37:44.196Z,3.90
2018-06-16T02:40:12.668Z,4.17
2018-06-16T02:42:41.212Z,4.10
2018-06-16T02:45:09.748Z,3.73
2018-06-16T02:47:38.303Z,3.77
2018-06-16T02:50:06.839Z,3.37
2018-06-16T02:52:35.374Z,3.43
2018-06-16T02:55:03.528Z,3.63
2018-06-16T02:57:32.021Z,3.07
2018-06-16T03:00:00.525Z,3.67
2018-06-16T03:02:29.039Z,3.40
2018-06-16T03:04:57.587Z,3.47
2018-06-16T03:07:26.083Z,3.67
2018-06-16T03:09:54.308Z,3.53
2018-06-16T03:12:22.845Z,3.77
2018-06-16T03:14:51.045Z,3.70
2018-06-16T03:17:19.545Z,3.83
2018-06-16T03:19:48.071Z,3.20
2018-06-16T03:22:16.597Z,3.37
2018-06-16T03:24:45.078Z,3.40
2018-06-16T03:27:13.579Z,3.50
2018-06-16T03:29:42.081Z,2.93
2018-06-16T03:32:10.575Z,3.40
2018-06-16T03:34:39.105Z,3.20
2018-06-16T03:37:07.289Z,3.33
2018-06-16T03:39:35.769Z,3.17
2018-06-16T03:42:04.385Z,3.70
2018-06-16T03:44:32.916Z,3.87
2018-06-16T03:47:01.408Z,3.50
2018-06-16T03:49:29.915Z,3.53
2018-06-16T03:51:58.100Z,3.60
2018-06-16T03:54:26.640Z,3.30
2018-06-16T03:56:55.163Z,3.50
2018-06-16T03:59:23.640Z,3.43
2018-06-16T04:01:52.208Z,3.90
2018-06-16T04:04:20.696Z,3.60
2018-06-16T04:06:49.196Z,3.80
2018-06-16T04:09:17.716Z,3.83
2018-06-16T04:11:46.207Z,4.20
2018-06-16T04:14:14.712Z,3.87
2018-06-16T04:16:43.252Z,3.50
2018-06-16T04:19:11.764Z,4.07
2018-06-16T04:21:40.291Z,4.13
2018-06-16T04:24:08.897Z,3.40
2018-06-16T04:26:37.398Z,3.50
2018-06-16T04:29:05.562Z,3.37
2018-06-16T04:31:34.102Z,3.27
2018-06-16T04:34:02.632Z,3.23
2018-06-16T04:36:31.148Z,3.60
2018-06-16T04:38:59.317Z,3.47
2018-06-16T04:41:27.849Z,3.40
2018-06-16T04:43:56.379Z,3.00
2018-06-16T04:46:24.882Z,2.93
2018-06-16T04:48:53.415Z,3.57
2018-06-16T04:51:21.951Z,3.17
2018-06-16T04:53:50.546Z,3.57
2018-06-16T04:56:19.093Z,3.83
2018-06-16T04:58:47.583Z,3.60
2018-06-16T05:01:16.083Z,3.60
2018-06-16T05:03:44.613Z,3.70
2018-06-16T05:06:13.110Z,4.40
2018-06-16T05:08:41.660Z,3.77
2018-06-16T05:11:10.195Z,3.90
2018-06-16T05:13:38.709Z,3.70
2018-06-16T05:16:07.205Z,4.00
2018-06-16T05:18:35.719Z,4.57
2018-06-16T05:21:04.496Z,4.47
2018-06-16T05:23:33.035Z,4.20
2018-06-16T05:26:01.524Z,5.27
2018-06-16T05:28:30.058Z,4.40
2018-06-16T05:30:58.217Z,3.97
2018-06-16T05:33:26.771Z,4.13
2018-06-16T05:35:55.299Z,4.43
2018-06-16T05:38:23.854Z,4.23
2018-06-16T05:40:52.348Z,3.83
2018-06-16T05:43:20.859Z,3.90
2018-06-16T05:45:49.395Z,4.30
2018-06-16T05:48:17.905Z,3.87
2018-06-16T05:50:46.447Z,3.90
2018-06-16T05:53:14.974Z,4.57
2018-06-16T05:55:43.746Z,4.10
2018-06-16T05:58:12.291Z,3.73
2018-06-16T06:00:40.468Z,4.00
2018-06-16T06:03:08.626Z,3.77
2018-06-16T06:05:37.143Z,3.43
2018-06-16T06:08:05.715Z,3.20
2018-06-16T06:10:34.242Z,3.60
2018-06-16T06:13:02.762Z,3.90
2018-06-16T06:15:31.288Z,3.73
2018-06-16T06:17:59.440Z,3.23
2018-06-16T06:20:27.940Z,3.57
2018-06-16T06:22:56.498Z,3.33
2018-06-16T06:25:25.035Z,3.50
2018-06-16T06:27:53.579Z,3.33
2018-06-16T06:30:22.099Z,3.17
2018-06-16T06:32:50.272Z,3.40
2018-06-16T06:35:18.831Z,3.20
2018-06-16T06:37:47.376Z,3.10
2018-06-16T06:40:15.920Z,3.37
2018-06-16T06:42:44.483Z,3.10
2018-06-16T06:45:13.231Z,3.43
2018-06-16T06:47:41.766Z,3.17
2018-06-16T06:50:10.347Z,3.00
2018-06-16T06:52:38.875Z,3.10
2018-06-16T06:55:07.442Z,3.00
2018-06-16T06:57:35.967Z,3.17
2018-06-16T07:00:04.548Z,3.20
2018-06-16T07:02:33.116Z,3.00
2018-06-16T07:05:01.335Z,2.93
2018-06-16T07:07:29.868Z,2.90
2018-06-16T07:09:58.396Z,2.90
2018-06-16T07:12:26.941Z,3.13
2018-06-16T07:14:55.480Z,3.10
2018-06-16T07:17:24.017Z,2.80
2018-06-16T07:19:52.544Z,2.87
2018-06-16T07:22:21.096Z,2.90
2018-06-16T07:24:49.630Z,2.80
2018-06-16T07:27:18.154Z,2.80
2018-06-16T07:29:46.761Z,3.57
2018-06-16T07:32:15.349Z,3.10
2018-06-16T07:34:43.937Z,2.93
2018-06-16T07:37:12.441Z,3.27
2018-06-16T07:39:40.629Z,3.00
2018-06-16T07:42:09.220Z,3.30
2018-06-16T07:44:37.756Z,3.10
2018-06-16T07:47:06.353Z,3.10
2018-06-16T07:49:34.906Z,3.53
2018-06-16T07:52:03.465Z,3.20
2018-06-16T07:54:32.017Z,3.20
2018-06-16T07:57:00.629Z,3.10
2018-06-16T07:59:29.196Z,2.90
2018-06-16T08:01:57.939Z,2.40
2018-06-16T08:04:26.527Z,3.50
2018-06-16T08:06:55.366Z,3.10
2018-06-16T08:09:23.934Z,3.60
2018-06-16T08:11:52.650Z,3.13
2018-06-16T08:14:21.199Z,3.40
2018-06-16T08:16:49.781Z,3.13
2018-06-16T08:19:18.340Z,3.77
2018-06-16T08:21:46.885Z,3.03
2018-06-16T08:24:15.439Z,3.40
2018-06-16T08:26:44.029Z,3.13
2018-06-16T08:29:12.575Z,3.00
2018-06-16T08:31:40.813Z,3.40
2018-06-16T08:34:09.396Z,2.70
2018-06-16T08:36:37.950Z,2.87
2018-06-16T08:39:08.924Z,2.93
2018-06-16T08:41:37.486Z,3.03
2018-06-16T08:44:06.215Z,3.03
2018-06-16T08:46:34.874Z,2.63
2018-06-16T08:49:03.392Z,3.23
2018-06-16T08:51:31.975Z,3.37
2018-06-16T08:54:00.617Z,2.50
2018-06-16T08:56:29.223Z,2.90
2018-06-16T08:58:57.779Z,2.70
2018-06-16T09:01:26.321Z,3.03
2018-06-16T09:03:54.875Z,2.80
2018-06-16T09:06:23.451Z,3.40
2018-06-16T09:08:51.983Z,3.27
2018-06-16T09:11:20.583Z,3.40
2018-06-16T09:13:49.098Z,3.40
2018-06-16T09:16:17.622Z,3.43
2018-06-16T09:18:46.209Z,3.57
2018-06-16T09:21:14.761Z,3.83
2018-06-16T09:23:42.951Z,3.37
2018-06-16T09:26:11.493Z,3.10
2018-06-16T09:28:40.061Z,3.50
2018-06-16T09:31:08.676Z,3.87
2018-06-16T09:33:37.223Z,3.23
2018-06-16T09:36:05.802Z,3.27
2018-06-16T09:38:34.332Z,3.67
2018-06-16T09:41:02.866Z,3.23
2018-06-16T09:43:31.426Z,3.77
2018-06-16T09:46:00.033Z,3.20
2018-06-16T09:48:28.576Z,3.43
2018-06-16T09:50:57.090Z,3.43
2018-06-16T09:53:25.617Z,3.60
2018-06-16T09:55:54.177Z,3.60
2018-06-16T09:58:22.682Z,3.20
2018-06-16T10:00:51.214Z,4.03
2018-06-16T10:03:19.819Z,3.27
2018-06-16T10:05:48.333Z,3.40
2018-06-16T10:08:16.884Z,3.27
2018-06-16T10:10:45.508Z,3.70
2018-06-16T10:13:13.711Z,3.30
2018-06-16T10:15:42.298Z,4.07
2018-06-16T10:18:10.891Z,3.10
2018-06-16T10:20:39.435Z,3.57
2018-06-16T10:23:07.947Z,3.40
2018-06-16T10:25:36.468Z,4.27
2018-06-16T10:28:05.026Z,3.73
2018-06-16T10:30:33.586Z,3.87
2018-06-16T10:33:02.210Z,3.47
2018-06-16T10:35:30.867Z,3.70
2018-06-16T10:37:59.434Z,3.00
2018-06-16T10:40:28.142Z,3.40
2018-06-16T10:42:56.374Z,3.37
2018-06-16T10:45:24.985Z,3.07
2018-06-16T10:47:55.265Z,3.20
2018-06-16T10:50:23.801Z,3.77
2018-06-16T10:52:52.536Z,3.10
2018-06-16T10:55:21.076Z,3.10
2018-06-16T10:57:49.680Z,3.07
2018-06-16T11:00:18.301Z,3.00
2018-06-16T11:02:46.846Z,2.73
2018-06-16T11:05:15.452Z,2.93
2018-06-16T11:07:44.047Z,2.73
2018-06-16T11:10:12.280Z,2.63
2018-06-16T11:12:40.866Z,3.00
2018-06-16T11:15:09.414Z,2.67
2018-06-16T11:17:38.042Z,2.53
2018-06-16T11:20:06.595Z,2.60
2018-06-16T11:22:35.168Z,2.70
2018-06-16T11:25:03.352Z,2.40
2018-06-16T11:27:31.909Z,2.60
2018-06-16T11:30:00.463Z,2.80
2018-06-16T11:32:29.021Z,2.37
2018-06-16T11:34:57.572Z,2.97
2018-06-16T11:37:26.141Z,2.60
2018-06-16T11:39:54.685Z,2.60
2018-06-16T11:42:23.326Z,2.47
2018-06-16T11:44:51.981Z,2.60
2018-06-16T11:47:20.673Z,2.40
2018-06-16T11:49:49.213Z,2.60
2018-06-16T11:52:17.842Z,2.70
2018-06-16T11:54:46.380Z,2.50
2018-06-16T11:57:14.980Z,2.33
2018-06-16T11:59:43.195Z,2.60
2018-06-16T12:02:11.737Z,2.60
2018-06-16T12:04:40.485Z,2.80
2018-06-16T12:07:09.025Z,2.87
2018-06-16T12:09:37.203Z,2.77
2018-06-16T12:12:05.395Z,2.93
2018-06-16T12:14:33.587Z,2.63
2018-06-16T12:17:02.123Z,2.47
2018-06-16T12:19:30.649Z,2.73
2018-06-16T12:21:59.210Z,3.00
2018-06-16T12:24:27.758Z,3.03
2018-06-16T12:26:56.293Z,2.70
2018-06-16T12:29:24.510Z,2.40
2018-06-16T12:31:53.060Z,2.70
2018-06-16T12:34:21.619Z,2.80
2018-06-16T12:36:50.245Z,2.80
2018-06-16T12:39:18.800Z,2.50
2018-06-16T12:41:47.333Z,2.80
2018-06-16T12:44:15.920Z,2.87
2018-06-16T12:46:44.494Z,2.97
2018-06-16T12:49:12.675Z,2.77
2018-06-16T12:51:40.896Z,2.97
2018-06-16T12:54:09.508Z,2.70
2018-06-16T12:56:38.127Z,2.90
2018-06-16T12:59:06.667Z,2.80
2018-06-16T13:01:35.219Z,3.03
2018-06-16T13:04:03.855Z,3.30
2018-06-16T13:06:32.409Z,3.00
2018-06-16T13:09:00.985Z,3.00
2018-06-16T13:11:29.546Z,3.20
2018-06-16T13:13:57.769Z,2.80
2018-06-16T13:16:26.329Z,2.60
2018-06-16T13:18:54.959Z,2.83
2018-06-16T13:21:23.552Z,3.10
2018-06-16T13:23:52.193Z,2.70
2018-06-16T13:26:20.424Z,3.03
2018-06-16T13:28:49.002Z,2.97
2018-06-16T13:31:17.600Z,3.10
2018-06-16T13:33:46.135Z,3.00
2018-06-16T13:36:14.323Z,3.20
2018-06-16T13:38:42.899Z,3.37
2018-06-16T13:41:11.081Z,3.20
2018-06-16T13:43:39.624Z,3.17
2018-06-16T13:46:08.160Z,3.10
2018-06-16T13:48:36.675Z,3.20
2018-06-16T13:51:05.246Z,2.60
2018-06-16T13:53:33.808Z,3.13
2018-06-16T13:56:02.019Z,2.93
2018-06-16T13:58:30.594Z,3.10
2018-06-16T14:00:59.309Z,2.80
2018-06-16T14:03:27.867Z,2.90
2018-06-16T14:05:56.536Z,3.10
2018-06-16T14:08:25.166Z,3.10
2018-06-16T14:10:53.722Z,3.20
2018-06-16T14:13:22.261Z,3.10
2018-06-16T14:15:50.839Z,2.80
2018-06-16T14:18:19.420Z,3.00
2018-06-16T14:20:47.992Z,3.07
2018-06-16T14:23:16.525Z,2.77
2018-06-16T14:25:45.148Z,2.90
2018-06-16T14:28:13.701Z,3.10
2018-06-16T14:30:42.251Z,3.10
2018-06-16T14:33:10.879Z,3.20
2018-06-16T14:35:39.539Z,3.20
2018-06-16T14:38:08.089Z,3.10
2018-06-16T14:40:36.286Z,3.33
2018-06-16T14:43:04.963Z,3.30
2018-06-16T14:45:33.579Z,2.93
2018-06-16T14:48:02.123Z,3.37
2018-06-16T14:50:30.618Z,3.20
2018-06-16T14:52:59.141Z,3.53
2018-06-16T14:55:27.721Z,3.20
2018-06-16T14:57:56.294Z,3.33
2018-06-16T15:00:24.805Z,3.07
2018-06-16T15:02:53.388Z,2.90
2018-06-16T15:05:21.976Z,2.80
2018-06-16T15:07:50.544Z,2.65
2018-06-16T15:10:19.117Z,2.77
2018-06-16T15:12:47.322Z,2.62
2018-06-16T15:15:15.855Z,2.60
2018-06-16T15:17:44.431Z,2.70
2018-06-16T15:20:12.971Z,3.10
2018-06-16T15:22:41.528Z,2.52
2018-06-16T15:25:10.124Z,2.30
2018-06-16T15:27:38.340Z,2.52
2018-06-16T15:30:06.912Z,2.70
2018-06-16T15:32:35.565Z,2.60
2018-06-16T15:35:04.182Z,2.30
2018-06-16T15:37:32.830Z,2.65
2018-06-16T15:40:01.406Z,2.70
2018-06-16T15:42:30.011Z,2.45
2018-06-16T15:44:58.505Z,2.67
2018-06-16T15:47:27.051Z,2.90
2018-06-16T15:49:55.609Z,2.90
2018-06-16T15:52:24.146Z,2.77
2018-06-16T15:54:52.764Z,2.67
2018-06-16T15:57:21.488Z,2.80
2018-06-16T15:59:50.059Z,2.90
2018-06-16T16:02:18.602Z,2.80
2018-06-16T16:04:47.162Z,2.93
2018-06-16T16:07:15.695Z,2.50
2018-06-16T16:09:44.241Z,2.60
2018-06-16T16:12:12.819Z,2.83
2018-06-16T16:14:41.346Z,2.87
2018-06-16T16:17:09.886Z,3.00
2018-06-16T16:19:38.512Z,3.10
2018-06-16T16:22:07.109Z,2.63
2018-06-16T16:24:35.690Z,2.80
2018-06-16T16:27:04.349Z,2.83
2018-06-16T16:29:32.974Z,3.10
2018-06-16T16:32:01.493Z,2.80
2018-06-16T16:34:30.076Z,2.80
2018-06-16T16:36:58.611Z,2.90
2018-06-16T16:39:27.155Z,2.70
2018-06-16T16:41:55.701Z,2.60
2018-06-16T16:44:24.273Z,2.90
2018-06-16T16:46:52.876Z,3.23
2018-06-16T16:49:21.460Z,3.10
2018-06-16T16:51:50.023Z,3.10
2018-06-16T16:54:18.684Z,2.73
2018-06-16T16:56:47.211Z,2.83
2018-06-16T16:59:15.866Z,3.00
2018-06-16T17:01:44.440Z,2.97
2018-06-16T17:04:13.089Z,2.93
2018-06-16T17:06:41.674Z,2.70
2018-06-16T17:09:11.433Z,3.07
2018-06-16T17:11:40.096Z,3.00
2018-06-16T17:14:08.821Z,2.93
2018-06-16T17:16:37.512Z,3.00
2018-06-16T17:19:05.743Z,2.80
2018-06-16T17:21:34.355Z,2.90
2018-06-16T17:24:02.908Z,3.33
2018-06-16T17:26:31.482Z,2.70
2018-06-16T17:29:00.057Z,2.97
2018-06-16T17:31:28.705Z,2.90
2018-06-16T17:33:57.225Z,3.20
2018-06-16T17:36:25.760Z,3.10
2018-06-16T17:38:54.364Z,3.50
2018-06-16T17:41:22.976Z,3.20
2018-06-16T17:43:51.841Z,3.10
2018-06-16T17:46:20.628Z,3.13
2018-06-16T17:48:49.543Z,3.10
2018-06-16T17:51:18.082Z,3.43
2018-06-16T17:53:46.653Z,3.30
2018-06-16T17:56:15.174Z,2.90
2018-06-16T17:58:44.169Z,3.17
2018-06-16T18:01:12.827Z,2.93
2018-06-16T18:03:41.630Z,3.27
2018-06-16T18:06:10.374Z,3.27
2018-06-16T18:08:39.361Z,3.00
2018-06-16T18:11:07.972Z,3.37
2018-06-16T18:13:36.586Z,3.30
2018-06-16T18:16:23.192Z,3.10
2018-06-16T18:18:51.870Z,3.20
2018-06-16T18:21:20.460Z,3.23
2018-06-16T18:23:49.044Z,3.30
2018-06-16T18:26:17.564Z,2.97
2018-06-16T18:28:46.093Z,3.33
2018-06-16T18:31:14.645Z,3.40
2018-06-16T18:33:43.191Z,3.00
2018-06-16T18:36:11.725Z,3.20
2018-06-16T18:38:40.280Z,3.07
2018-06-16T18:41:08.832Z,3.13
2018-06-16T18:43:37.335Z,3.00
2018-06-16T18:46:05.920Z,3.60
2018-06-16T18:48:34.439Z,3.10
2018-06-16T18:51:03.730Z,3.40
2018-06-16T18:53:32.239Z,3.13
2018-06-16T18:56:01.784Z,3.43
2018-06-16T18:58:30.352Z,3.73
2018-06-16T19:00:59.473Z,3.90
2018-06-16T19:03:28.000Z,4.27
2018-06-16T19:05:57.043Z,3.97
2018-06-16T19:08:25.926Z,3.80
2018-06-16T19:10:54.642Z,3.90
2018-06-16T19:13:23.423Z,4.10
2018-06-16T19:15:52.290Z,3.50
2018-06-16T19:18:21.290Z,3.63
2018-06-16T19:20:50.125Z,3.70
2018-06-16T19:23:18.692Z,3.83
2018-06-16T19:25:47.240Z,3.60
2018-06-16T19:28:16.037Z,3.43
2018-06-16T19:30:44.902Z,3.80
2018-06-16T19:33:13.751Z,3.30
2018-06-16T19:35:42.540Z,3.30
2018-06-16T19:38:11.261Z,3.33
2018-06-16T19:40:39.946Z,3.53
2018-06-16T19:43:08.736Z,3.47
2018-06-16T19:45:37.284Z,3.87
2018-06-16T19:48:06.118Z,3.63
2018-06-16T19:50:34.876Z,3.50
2018-06-16T19:53:03.405Z,3.50
2018-06-16T19:55:31.577Z,3.67
2018-06-16T19:58:00.096Z,3.50
2018-06-16T20:00:28.701Z,3.80
2018-06-16T20:02:57.258Z,3.50
2018-06-16T20:05:25.804Z,3.63
2018-06-16T20:07:54.303Z,3.23
2018-06-16T20:10:23.126Z,3.70
2018-06-16T20:12:52.169Z,3.73
2018-06-16T20:15:20.881Z,3.80
2018-06-16T20:17:49.645Z,3.80
2018-06-16T20:20:18.377Z,3.90
2018-06-16T20:22:46.832Z,3.73
2018-06-16T20:25:15.678Z,3.57
2018-06-16T20:27:44.368Z,3.80
2018-06-16T20:30:13.112Z,3.67
2018-06-16T20:32:41.960Z,3.70
2018-06-16T20:35:10.741Z,4.00
2018-06-16T20:37:39.097Z,3.80
2018-06-16T20:40:07.643Z,4.00
2018-06-16T20:42:36.207Z,4.20
2018-06-16T20:45:04.990Z,3.80
2018-06-16T20:47:33.528Z,3.87
2018-06-16T20:50:02.074Z,3.70
2018-06-16T20:52:30.576Z,3.97
2018-06-16T20:54:59.083Z,4.20
2018-06-16T20:57:27.590Z,4.07
2018-06-16T20:59:56.104Z,4.13
2018-06-16T21:02:24.254Z,4.00
2018-06-16T21:04:52.755Z,4.50
2018-06-16T21:07:21.252Z,3.87
2018-06-16T21:09:49.607Z,3.80
2018-06-16T21:12:18.107Z,4.17
2018-06-16T21:14:46.605Z,5.00
2018-06-16T21:17:15.156Z,4.60
2018-06-16T21:19:43.668Z,4.27
2018-06-16T21:22:12.248Z,4.63
2018-06-16T21:24:40.790Z,4.60
2018-06-16T21:27:09.341Z,4.90
2018-06-16T21:29:37.906Z,4.07
2018-06-16T21:32:06.718Z,4.40
2018-06-16T21:34:35.373Z,4.30
2018-06-16T21:37:04.032Z,5.07
2018-06-16T21:39:32.531Z,4.97
2018-06-16T21:42:01.065Z,5.03
2018-06-16T21:44:29.618Z,5.00
2018-06-16T21:46:58.152Z,5.30
2018-06-16T21:49:26.323Z,4.80
2018-06-16T21:51:54.509Z,4.37
2018-06-16T21:54:22.678Z,4.53
2018-06-16T21:56:50.847Z,4.67
2018-06-16T21:59:19.425Z,4.60
2018-06-16T22:01:47.951Z,4.07
2018-06-16T22:04:16.482Z,4.47
2018-06-16T22:06:45.003Z,4.10
2018-06-16T22:09:13.534Z,4.10
2018-06-16T22:11:42.072Z,4.20
2018-06-16T22:14:10.276Z,4.07
2018-06-16T22:16:38.761Z,4.43
2018-06-16T22:19:07.283Z,4.40
2018-06-16T22:21:35.796Z,4.37
2018-06-16T22:24:04.388Z,4.10
2018-06-16T22:26:32.896Z,4.20
2018-06-16T22:29:01.049Z,4.23
2018-06-16T22:31:29.604Z,3.97
2018-06-16T22:33:58.153Z,4.60
2018-06-16T22:36:26.671Z,4.30
2018-06-16T22:38:55.203Z,4.60
2018-06-16T22:41:23.747Z,5.33
2018-06-16T22:43:52.236Z,4.50
2018-06-16T22:46:20.773Z,4.60
2018-06-16T22:48:49.333Z,4.43
2018-06-16T22:51:17.869Z,4.70
2018-06-16T22:53:46.378Z,4.27
2018-06-16T22:56:14.894Z,4.47
2018-06-16T22:58:43.413Z,4.30
2018-06-16T23:01:11.578Z,4.20
2018-06-16T23:03:40.095Z,5.47
2018-06-16T23:06:08.783Z,4.60
2018-06-16T23:08:37.321Z,4.80
2018-06-16T23:11:05.836Z,4.70
2018-06-16T23:13:34.041Z,4.60
2018-06-16T23:16:02.565Z,5.20
2018-06-16T23:18:32.004Z,4.93
2018-06-16T23:21:00.540Z,4.57
2018-06-16T23:23:29.295Z,4.73
2018-06-16T23:25:57.466Z,4.33
2018-06-16T23:28:25.988Z,4.67
2018-06-16T23:30:54.512Z,4.90
2018-06-16T23:33:23.035Z,4.90
2018-06-16T23:35:51.575Z,5.10
2018-06-16T23:38:20.128Z,4.30
2018-06-16T23:40:48.640Z,4.60
2018-06-16T23:43:17.152Z,4.40
2018-06-16T23:45:45.720Z,4.77
2018-06-16T23:48:14.277Z,4.63
2018-06-16T23:50:42.825Z,4.23
2018-06-16T23:53:11.375Z,4.63
2018-06-16T23:55:39.907Z,4.80
2018-06-16T23:58:08.090Z,4.80
